Time;durP1;ratioP1;P1;durP2;ratioP2;P2;SDS_P1;SDS_P2;PMS_P1;PMS_P2;Temp;Humidity;BMP_temperature;BMP_pressure;BME280_temperature;BME280_humidity;BME280_pressure;Samples;Min_cycle;Max_cycle;Signal;HPM_P1;HPM_P2
2023/12/24 00:02:08;;;;;;;1.33;0.70;;;12.70;99.90;;;;;;968426;148;27343;-85
2023/12/24 00:04:35;;;;;;;1.05;0.80;;;12.70;99.90;;;;;;967842;145;27462;-83
2023/12/24 00:07:02;;;;;;;1.57;0.80;;;12.70;99.90;;;;;;968946;147;27319;-83
2023/12/24 00:09:28;;;;;;;0.85;0.60;;;12.70;99.90;;;;;;968010;146;27441;-87
2023/12/24 00:11:55;;;;;;;0.88;0.62;;;12.80;99.90;;;;;;968707;146;27292;-83
2023/12/24 00:14:21;;;;;;;0.50;0.50;;;12.80;99.90;;;;;;968001;148;27274;-83
2023/12/24 00:16:48;;;;;;;1.22;0.70;;;12.80;99.90;;;;;;967868;147;27232;-84
2023/12/24 00:19:14;;;;;;;0.78;0.60;;;12.80;99.90;;;;;;968837;145;27301;-82
2023/12/24 00:21:42;;;;;;;2.40;0.60;;;12.80;99.90;;;;;;968181;145;27336;-82
2023/12/24 00:24:08;;;;;;;3.37;1.75;;;12.80;99.90;;;;;;968044;147;27335;-83
2023/12/24 00:26:34;;;;;;;2.00;1.07;;;12.80;99.90;;;;;;968644;147;27361;-83
2023/12/24 00:29:02;;;;;;;0.78;0.78;;;12.80;99.90;;;;;;968716;148;27367;-82
2023/12/24 00:31:27;;;;;;;0.98;0.78;;;12.80;99.90;;;;;;968620;147;27399;-88
2023/12/24 00:33:54;;;;;;;0.78;0.70;;;12.90;99.90;;;;;;968852;147;27250;-82
2023/12/24 00:36:21;;;;;;;1.57;0.95;;;12.90;99.90;;;;;;967912;147;27784;-83
2023/12/24 00:38:49;;;;;;;0.85;0.62;;;12.90;99.90;;;;;;969413;146;27333;-81
2023/12/24 00:41:14;;;;;;;0.78;0.55;;;12.90;99.90;;;;;;968552;147;27395;-82
2023/12/24 00:43:40;;;;;;;0.60;0.60;;;12.90;99.90;;;;;;967585;147;27332;-82
2023/12/24 00:46:07;;;;;;;1.50;0.72;;;12.90;99.90;;;;;;967989;146;27267;-84
2023/12/24 00:48:34;;;;;;;1.32;0.70;;;13.00;99.90;;;;;;969055;147;27333;-83
2023/12/24 00:51:00;;;;;;;0.68;0.68;;;13.00;99.90;;;;;;968161;147;27373;-83
2023/12/24 00:53:27;;;;;;;1.00;0.90;;;13.00;99.90;;;;;;967846;146;27435;-82
2023/12/24 00:55:53;;;;;;;0.62;0.62;;;13.00;99.90;;;;;;968694;145;27265;-83
2023/12/24 00:58:20;;;;;;;2.15;1.20;;;13.00;99.90;;;;;;968382;148;27261;-82
2023/12/24 01:00:47;;;;;;;1.65;1.00;;;13.00;99.90;;;;;;968726;146;27273;-83
2023/12/24 01:03:13;;;;;;;1.82;0.88;;;13.00;99.90;;;;;;968274;148;27807;-83
2023/12/24 01:05:40;;;;;;;0.78;0.78;;;13.10;99.90;;;;;;967465;147;27413;-83
2023/12/24 01:08:06;;;;;;;0.90;0.85;;;13.10;99.90;;;;;;968335;145;27338;-82
2023/12/24 01:10:33;;;;;;;0.68;0.68;;;13.10;99.90;;;;;;967678;146;27258;-82
2023/12/24 01:12:59;;;;;;;0.90;0.90;;;13.10;99.90;;;;;;968508;147;27306;-82
2023/12/24 01:15:26;;;;;;;1.17;0.93;;;13.10;99.90;;;;;;967357;145;27313;-82
2023/12/24 01:17:53;;;;;;;1.05;1.00;;;13.10;99.90;;;;;;969063;146;27247;-81
2023/12/24 01:20:19;;;;;;;1.00;0.90;;;13.10;99.90;;;;;;967555;146;27669;-81
2023/12/24 01:22:46;;;;;;;1.20;1.10;;;13.10;99.90;;;;;;967806;147;27274;-81
2023/12/24 01:25:12;;;;;;;0.72;0.72;;;13.10;99.90;;;;;;968029;146;27318;-81
2023/12/24 01:27:39;;;;;;;1.25;1.00;;;13.20;99.90;;;;;;933514;150;27302;-81
2023/12/24 01:30:06;;;;;;;0.95;0.95;;;13.20;99.90;;;;;;926984;154;27331;-81
2023/12/24 01:32:32;;;;;;;1.10;0.82;;;13.20;99.90;;;;;;967261;145;27374;-81
2023/12/24 01:34:59;;;;;;;0.85;0.85;;;13.20;99.90;;;;;;968650;146;27304;-81
2023/12/24 01:37:25;;;;;;;0.82;0.70;;;13.20;99.90;;;;;;968138;148;27457;-81
2023/12/24 01:39:52;;;;;;;0.98;0.93;;;13.20;99.90;;;;;;968289;145;27324;-84
2023/12/24 01:42:19;;;;;;;1.27;0.80;;;13.20;99.90;;;;;;967149;145;27219;-83
2023/12/24 01:44:45;;;;;;;0.80;0.75;;;13.20;99.90;;;;;;966712;146;27359;-84
2023/12/24 01:47:12;;;;;;;0.75;0.75;;;13.30;99.90;;;;;;968082;146;27337;-82
2023/12/24 01:49:38;;;;;;;1.55;0.75;;;13.30;99.90;;;;;;968085;145;27273;-84
2023/12/24 01:52:05;;;;;;;2.72;0.70;;;13.30;99.90;;;;;;968596;148;27249;-82
2023/12/24 01:54:32;;;;;;;0.60;0.60;;;13.30;99.90;;;;;;968885;146;27375;-84
2023/12/24 01:56:58;;;;;;;1.12;0.70;;;13.30;99.90;;;;;;968689;147;27321;-85
2023/12/24 01:59:25;;;;;;;1.20;0.90;;;13.30;99.90;;;;;;968210;148;27418;-85
2023/12/24 02:01:51;;;;;;;3.22;0.82;;;13.30;99.90;;;;;;967325;148;27336;-82
2023/12/24 02:04:18;;;;;;;0.60;0.60;;;13.30;99.90;;;;;;968009;145;27358;-86
2023/12/24 02:06:46;;;;;;;0.80;0.80;;;13.30;99.90;;;;;;968270;145;27267;-83
2023/12/24 02:09:12;;;;;;;1.00;0.75;;;13.30;99.90;;;;;;933591;150;27377;-83
2023/12/24 02:11:39;;;;;;;0.50;0.50;;;13.30;99.90;;;;;;936319;150;27363;-83
2023/12/24 02:14:07;;;;;;;0.50;0.50;;;13.30;99.90;;;;;;933067;153;27385;-89
2023/12/24 02:16:33;;;;;;;0.70;0.70;;;13.30;99.90;;;;;;968642;147;27435;-83
2023/12/24 02:19:00;;;;;;;1.30;0.78;;;13.30;99.90;;;;;;967582;146;27311;-83
2023/12/24 02:21:26;;;;;;;0.45;0.40;;;13.30;99.90;;;;;;967236;147;27301;-83
2023/12/24 02:23:53;;;;;;;1.45;0.78;;;13.30;99.90;;;;;;968331;145;27211;-82
2023/12/24 02:26:20;;;;;;;1.10;0.88;;;13.30;99.90;;;;;;968527;146;27753;-83
2023/12/24 02:28:46;;;;;;;1.87;0.62;;;13.30;99.90;;;;;;966500;148;27329;-83
2023/12/24 02:31:13;;;;;;;0.60;0.53;;;13.40;99.90;;;;;;967000;147;27393;-86
2023/12/24 02:33:42;;;;;;;1.20;1.07;;;13.40;99.90;;;;;;968161;145;27697;-88
2023/12/24 02:36:11;;;;;;;1.00;0.80;;;13.40;99.90;;;;;;967740;146;27321;-87
2023/12/24 02:38:37;;;;;;;0.95;0.95;;;13.40;99.90;;;;;;967480;146;27306;-87
2023/12/24 02:41:04;;;;;;;2.77;0.90;;;13.30;99.90;;;;;;974537;145;27292;-84
2023/12/24 02:43:34;;;;;;;1.32;0.70;;;13.40;99.90;;;;;;972855;146;27296;-83
2023/12/24 02:46:00;;;;;;;0.90;0.80;;;13.30;99.90;;;;;;974528;145;27326;-82
2023/12/24 02:48:26;;;;;;;1.07;0.60;;;13.40;99.90;;;;;;963216;146;27389;-86
2023/12/24 02:50:53;;;;;;;0.82;0.70;;;13.30;99.90;;;;;;964148;146;27366;-86
2023/12/24 02:53:19;;;;;;;1.10;0.70;;;13.40;99.90;;;;;;970821;146;27270;-85
2023/12/24 02:55:46;;;;;;;0.60;0.60;;;13.40;99.90;;;;;;971112;146;27767;-84
2023/12/24 02:58:13;;;;;;;0.62;0.62;;;13.40;99.90;;;;;;972901;146;27324;-84
2023/12/24 03:00:39;;;;;;;1.12;0.78;;;13.40;99.90;;;;;;972565;146;27246;-84
2023/12/24 03:03:06;;;;;;;0.85;0.70;;;13.40;99.90;;;;;;973641;146;27293;-84
2023/12/24 03:05:32;;;;;;;0.62;0.62;;;13.40;99.90;;;;;;972238;146;27317;-84
2023/12/24 03:07:59;;;;;;;0.57;0.47;;;13.40;99.90;;;;;;972278;146;27443;-84
2023/12/24 03:10:26;;;;;;;0.60;0.60;;;13.40;99.90;;;;;;973318;146;27322;-84
2023/12/24 03:12:52;;;;;;;1.22;0.68;;;13.40;99.90;;;;;;972088;146;27373;-84
2023/12/24 03:15:19;;;;;;;0.60;0.60;;;13.40;99.90;;;;;;970651;146;27253;-84
2023/12/24 03:17:45;;;;;;;0.70;0.70;;;13.30;99.90;;;;;;968170;146;27327;-84
2023/12/24 03:20:12;;;;;;;2.70;0.80;;;13.30;99.80;;;;;;968804;146;27223;-84
2023/12/24 03:22:38;;;;;;;0.93;0.80;;;13.30;99.80;;;;;;968944;145;27466;-84
2023/12/24 03:25:05;;;;;;;0.80;0.80;;;13.40;99.90;;;;;;968057;146;27283;-84
2023/12/24 03:27:32;;;;;;;0.70;0.70;;;13.30;99.60;;;;;;968780;146;27411;-84
2023/12/24 03:29:58;;;;;;;0.93;0.85;;;13.30;99.60;;;;;;968143;146;27317;-85
2023/12/24 03:32:25;;;;;;;1.95;0.90;;;13.30;99.60;;;;;;968525;147;27855;-88
2023/12/24 03:34:51;;;;;;;1.55;1.20;;;13.30;99.50;;;;;;968492;147;27270;-85
2023/12/24 03:37:18;;;;;;;0.60;0.60;;;13.30;99.30;;;;;;968341;146;27261;-83
2023/12/24 03:39:45;;;;;;;0.50;0.50;;;13.30;99.40;;;;;;968400;148;27832;-83
2023/12/24 03:42:11;;;;;;;0.68;0.68;;;13.30;99.40;;;;;;968459;147;27425;-84
2023/12/24 03:44:38;;;;;;;0.80;0.80;;;13.20;99.50;;;;;;968542;147;27336;-83
2023/12/24 03:47:04;;;;;;;0.65;0.65;;;13.20;99.60;;;;;;968668;146;27263;-83
2023/12/24 03:49:32;;;;;;;0.57;0.57;;;13.20;99.40;;;;;;968576;145;27412;-83
2023/12/24 03:51:59;;;;;;;0.62;0.62;;;13.20;99.30;;;;;;968194;148;27862;-83
2023/12/24 03:54:25;;;;;;;1.17;0.98;;;13.20;99.40;;;;;;968246;146;27404;-83
2023/12/24 03:56:52;;;;;;;0.57;0.57;;;13.10;99.50;;;;;;969023;145;28761;-83
2023/12/24 03:59:19;;;;;;;0.60;0.60;;;13.10;99.60;;;;;;968145;147;27274;-86
2023/12/24 04:01:45;;;;;;;1.22;1.00;;;13.10;99.60;;;;;;969191;148;27281;-83
2023/12/24 04:04:12;;;;;;;0.62;0.62;;;13.10;99.70;;;;;;968941;147;27260;-85
2023/12/24 04:06:38;;;;;;;0.70;0.57;;;13.10;99.70;;;;;;969189;147;27310;-86
2023/12/24 04:09:05;;;;;;;0.53;0.53;;;13.00;99.80;;;;;;968086;146;27371;-85
2023/12/24 04:11:32;;;;;;;0.75;0.75;;;13.00;99.80;;;;;;968535;146;27277;-83
2023/12/24 04:13:58;;;;;;;1.05;0.72;;;13.00;99.80;;;;;;968699;147;27852;-83
2023/12/24 04:16:25;;;;;;;1.27;0.62;;;13.00;99.80;;;;;;968373;146;27313;-86
2023/12/24 04:18:51;;;;;;;1.27;0.75;;;13.10;99.80;;;;;;967606;146;27422;-83
2023/12/24 04:21:18;;;;;;;0.80;0.80;;;13.00;99.90;;;;;;967758;146;27291;-84
2023/12/24 04:23:45;;;;;;;0.60;0.60;;;13.00;99.50;;;;;;968325;147;27300;-82
2023/12/24 04:26:11;;;;;;;2.67;0.93;;;13.10;99.80;;;;;;968652;147;27355;-81
2023/12/24 04:28:38;;;;;;;0.70;0.70;;;13.00;99.80;;;;;;967699;147;28085;-82
2023/12/24 04:31:04;;;;;;;0.90;0.90;;;13.10;99.80;;;;;;968305;147;27692;-82
2023/12/24 04:33:31;;;;;;;1.40;0.70;;;13.00;99.80;;;;;;967996;147;27218;-83
2023/12/24 04:35:57;;;;;;;1.30;0.80;;;13.00;99.60;;;;;;967617;147;27373;-83
2023/12/24 04:38:24;;;;;;;0.60;0.60;;;13.00;99.40;;;;;;967750;145;27317;-84
2023/12/24 04:40:51;;;;;;;0.90;0.90;;;13.00;99.60;;;;;;969914;145;27407;-83
2023/12/24 04:43:17;;;;;;;1.17;0.90;;;13.00;99.70;;;;;;971599;146;27373;-83
2023/12/24 04:45:44;;;;;;;1.10;1.10;;;13.00;99.80;;;;;;970511;145;27300;-83
2023/12/24 04:48:10;;;;;;;0.50;0.50;;;13.00;99.90;;;;;;968271;146;27246;-82
2023/12/24 04:50:37;;;;;;;1.00;0.90;;;13.00;99.90;;;;;;936797;150;27819;-81
2023/12/24 04:53:04;;;;;;;1.20;0.80;;;13.00;99.90;;;;;;933487;153;27426;-82
2023/12/24 04:55:30;;;;;;;0.80;0.73;;;13.00;99.90;;;;;;950582;150;27372;-82
2023/12/24 04:57:57;;;;;;;1.05;0.90;;;13.00;99.90;;;;;;951084;149;27309;-82
2023/12/24 05:00:23;;;;;;;1.17;0.80;;;13.00;99.90;;;;;;950026;148;27416;-82
2023/12/24 05:02:51;;;;;;;0.80;0.80;;;13.00;99.90;;;;;;926966;154;27451;-81
2023/12/24 05:05:17;;;;;;;0.90;0.90;;;13.00;99.90;;;;;;927616;154;27386;-82
2023/12/24 05:07:43;;;;;;;1.60;1.00;;;13.00;99.90;;;;;;950276;150;27415;-82
2023/12/24 05:10:10;;;;;;;1.75;0.80;;;13.00;99.90;;;;;;950386;150;27306;-82
2023/12/24 05:12:36;;;;;;;0.75;0.53;;;13.00;99.90;;;;;;946483;151;27328;-82
2023/12/24 05:15:03;;;;;;;1.35;0.80;;;13.00;99.90;;;;;;939293;152;27449;-84
2023/12/24 05:17:29;;;;;;;0.78;0.78;;;13.00;99.90;;;;;;939866;151;27285;-85
2023/12/24 05:19:56;;;;;;;0.68;0.68;;;13.00;99.90;;;;;;939884;152;27387;-85
2023/12/24 05:22:23;;;;;;;1.40;0.70;;;13.00;99.90;;;;;;939155;152;28023;-84
2023/12/24 05:24:49;;;;;;;0.72;0.65;;;13.00;99.90;;;;;;938945;151;27466;-84
2023/12/24 05:27:16;;;;;;;1.72;0.68;;;13.00;99.90;;;;;;940262;152;27302;-84
2023/12/24 05:29:43;;;;;;;2.17;0.80;;;13.00;99.90;;;;;;940097;152;27315;-84
2023/12/24 05:32:09;;;;;;;0.93;0.68;;;13.00;99.90;;;;;;939870;151;27323;-84
2023/12/24 05:34:36;;;;;;;0.68;0.68;;;13.00;99.90;;;;;;939004;152;27357;-84
2023/12/24 05:37:02;;;;;;;0.60;0.60;;;13.00;99.90;;;;;;939488;152;27400;-84
2023/12/24 05:39:29;;;;;;;0.95;0.88;;;12.90;99.90;;;;;;940169;151;27427;-84
2023/12/24 05:41:55;;;;;;;0.60;0.60;;;12.90;99.90;;;;;;937910;151;27310;-84
2023/12/24 05:44:22;;;;;;;1.77;1.20;;;12.90;99.90;;;;;;967515;145;27310;-84
2023/12/24 05:46:51;;;;;;;2.15;0.60;;;12.80;99.90;;;;;;967356;148;27789;-84
2023/12/24 05:49:18;;;;;;;0.75;0.70;;;12.80;99.90;;;;;;967217;147;27313;-84
2023/12/24 05:51:44;;;;;;;1.45;0.60;;;12.80;99.90;;;;;;966833;148;27293;-85
2023/12/24 05:54:11;;;;;;;0.70;0.70;;;12.70;99.90;;;;;;935116;151;27463;-84
2023/12/24 05:56:38;;;;;;;0.95;0.72;;;12.60;99.90;;;;;;930663;152;27335;-84
2023/12/24 05:59:04;;;;;;;0.60;0.60;;;12.50;99.90;;;;;;941770;152;27270;-85
2023/12/24 06:01:31;;;;;;;0.60;0.60;;;12.50;99.90;;;;;;931776;152;27300;-85
2023/12/24 06:03:58;;;;;;;0.70;0.70;;;12.40;99.90;;;;;;929566;152;27366;-84
2023/12/24 06:06:24;;;;;;;0.60;0.60;;;12.30;99.90;;;;;;933252;152;27444;-85
2023/12/24 06:08:51;;;;;;;0.80;0.70;;;12.30;99.90;;;;;;967024;146;27437;-84
2023/12/24 06:11:17;;;;;;;0.62;0.62;;;12.20;99.90;;;;;;967514;146;27274;-87
2023/12/24 06:13:44;;;;;;;0.57;0.57;;;12.20;99.90;;;;;;958541;147;27266;-88
2023/12/24 06:16:12;;;;;;;0.50;0.50;;;12.10;99.90;;;;;;961847;146;27337;-87
2023/12/24 06:18:37;;;;;;;0.70;0.70;;;12.10;99.90;;;;;;966203;146;28067;-87
2023/12/24 06:21:03;;;;;;;0.80;0.80;;;12.00;99.90;;;;;;967025;148;27387;-87
2023/12/24 06:23:31;;;;;;;0.53;0.53;;;12.00;99.90;;;;;;963503;146;27251;-87
2023/12/24 06:25:57;;;;;;;1.40;0.60;;;11.90;99.90;;;;;;963590;148;27458;-88
2023/12/24 06:28:23;;;;;;;1.37;0.60;;;11.90;99.90;;;;;;928345;153;27458;-90
2023/12/24 06:30:50;;;;;;;0.60;0.60;;;11.90;99.90;;;;;;966923;146;27250;-87
2023/12/24 06:33:16;;;;;;;1.07;0.77;;;11.90;99.90;;;;;;967851;146;27354;-85
2023/12/24 06:35:43;;;;;;;0.80;0.60;;;11.80;99.90;;;;;;967923;147;27318;-85
2023/12/24 06:38:10;;;;;;;0.60;0.60;;;11.80;99.90;;;;;;934283;151;27447;-86
2023/12/24 06:40:36;;;;;;;0.57;0.57;;;11.80;99.90;;;;;;935216;150;27323;-85
2023/12/24 06:43:03;;;;;;;1.83;0.80;;;11.80;99.90;;;;;;919703;153;27376;-89
2023/12/24 06:45:29;;;;;;;0.60;0.60;;;11.80;99.90;;;;;;945288;149;27289;-87
2023/12/24 06:47:56;;;;;;;1.07;0.93;;;11.70;99.90;;;;;;946657;151;27329;-86
2023/12/24 06:50:23;;;;;;;2.93;1.20;;;11.70;99.90;;;;;;921110;155;27341;-86
2023/12/24 06:52:49;;;;;;;2.13;1.20;;;11.70;99.90;;;;;;948080;151;27321;-90
2023/12/24 06:55:16;;;;;;;1.03;0.80;;;11.70;99.90;;;;;;947791;151;27308;-87
2023/12/24 06:57:42;;;;;;;1.10;0.70;;;11.70;99.90;;;;;;946658;150;27352;-87
2023/12/24 07:00:09;;;;;;;0.90;0.90;;;11.70;99.90;;;;;;946585;150;27931;-87
2023/12/24 07:02:35;;;;;;;0.77;0.77;;;11.70;99.90;;;;;;946251;150;27301;-89
2023/12/24 07:05:02;;;;;;;0.63;0.63;;;11.70;99.90;;;;;;931934;153;27358;-88
2023/12/24 07:07:29;;;;;;;0.67;0.67;;;11.70;99.90;;;;;;940145;151;27425;-88
2023/12/24 07:09:55;;;;;;;0.97;0.70;;;11.70;99.90;;;;;;939446;150;27389;-90
2023/12/24 07:12:22;;;;;;;0.70;0.70;;;11.70;99.90;;;;;;926565;150;27335;-88
2023/12/24 07:14:48;;;;;;;0.70;0.70;;;11.70;99.90;;;;;;947389;150;27282;-88
2023/12/24 07:17:15;;;;;;;0.57;0.57;;;11.70;99.90;;;;;;966108;147;27298;-86
2023/12/24 07:19:42;;;;;;;0.60;0.60;;;11.70;99.90;;;;;;966023;146;27338;-82
2023/12/24 07:22:08;;;;;;;0.50;0.50;;;11.70;99.90;;;;;;967374;146;27754;-85
2023/12/24 07:24:36;;;;;;;0.67;0.50;;;11.70;99.90;;;;;;929931;154;27320;-86
2023/12/24 07:27:01;;;;;;;0.60;0.60;;;11.70;99.90;;;;;;934021;151;27329;-87
2023/12/24 07:29:28;;;;;;;0.50;0.50;;;11.70;99.90;;;;;;924243;155;27279;-88
2023/12/24 07:31:55;;;;;;;1.80;0.70;;;11.70;99.90;;;;;;967310;147;27326;-82
2023/12/24 07:34:21;;;;;;;0.80;0.80;;;11.70;99.90;;;;;;966659;147;27317;-87
2023/12/24 07:36:48;;;;;;;0.80;0.80;;;11.70;99.90;;;;;;966905;146;27270;-81
2023/12/24 07:39:14;;;;;;;0.60;0.60;;;11.70;99.90;;;;;;966605;148;27222;-81
2023/12/24 07:41:42;;;;;;;0.40;0.40;;;11.70;99.90;;;;;;920375;151;27638;-82
2023/12/24 07:44:08;;;;;;;0.70;0.70;;;11.70;99.90;;;;;;947369;149;27474;-81
2023/12/24 07:46:34;;;;;;;0.60;0.60;;;11.70;99.90;;;;;;948219;148;27309;-80
2023/12/24 07:49:01;;;;;;;0.70;0.67;;;11.70;99.90;;;;;;947951;148;27293;-81
2023/12/24 07:51:27;;;;;;;0.37;0.37;;;11.70;99.90;;;;;;948026;149;27332;-81
2023/12/24 07:53:54;;;;;;;0.97;0.87;;;11.70;99.90;;;;;;966599;146;27395;-80
2023/12/24 07:56:20;;;;;;;1.30;0.70;;;11.70;99.90;;;;;;965480;146;28517;-80
2023/12/24 07:58:47;;;;;;;0.70;0.70;;;11.70;99.90;;;;;;964806;146;27383;-80
2023/12/24 08:01:14;;;;;;;0.70;0.70;;;11.80;99.90;;;;;;963720;146;27375;-80
2023/12/24 08:03:40;;;;;;;0.65;0.65;;;11.80;99.90;;;;;;927940;151;27475;-80
2023/12/24 08:06:07;;;;;;;0.60;0.60;;;11.80;99.90;;;;;;931741;151;27735;-80
2023/12/24 08:08:33;;;;;;;1.40;0.83;;;11.80;99.90;;;;;;964762;146;27419;-80
2023/12/24 08:11:00;;;;;;;0.70;0.70;;;11.80;99.90;;;;;;965281;146;27386;-80
2023/12/24 08:13:27;;;;;;;0.50;0.50;;;11.80;99.90;;;;;;965197;147;27371;-81
2023/12/24 08:15:53;;;;;;;1.13;0.90;;;11.80;99.90;;;;;;964789;147;27406;-81
2023/12/24 08:18:20;;;;;;;1.00;0.60;;;11.90;99.90;;;;;;966188;147;27271;-82
2023/12/24 08:20:46;;;;;;;0.83;0.60;;;11.90;99.90;;;;;;965342;146;27297;-81
2023/12/24 08:23:14;;;;;;;0.60;0.60;;;11.90;99.90;;;;;;965136;147;27262;-80
2023/12/24 08:25:39;;;;;;;0.70;0.70;;;11.90;99.90;;;;;;965282;147;27313;-82
2023/12/24 08:28:06;;;;;;;0.60;0.60;;;11.90;99.90;;;;;;966570;147;27338;-81
2023/12/24 08:30:33;;;;;;;0.47;0.47;;;11.90;99.90;;;;;;964781;147;27236;-82
2023/12/24 08:32:59;;;;;;;0.33;0.33;;;11.90;99.90;;;;;;965090;147;27259;-81
2023/12/24 08:35:26;;;;;;;0.53;0.53;;;12.00;99.90;;;;;;966908;147;27293;-81
2023/12/24 08:37:52;;;;;;;0.60;0.60;;;12.00;99.90;;;;;;966167;146;27314;-79
2023/12/24 08:40:19;;;;;;;0.33;0.33;;;12.00;99.90;;;;;;925681;151;27395;-80
2023/12/24 08:42:46;;;;;;;0.42;0.42;;;12.00;99.90;;;;;;965363;147;27289;-80
2023/12/24 08:45:12;;;;;;;0.80;0.80;;;12.00;99.90;;;;;;966560;147;27370;-80
2023/12/24 08:47:39;;;;;;;0.60;0.60;;;12.00;99.90;;;;;;967164;146;27406;-80
2023/12/24 08:50:05;;;;;;;0.70;0.70;;;12.00;99.90;;;;;;966379;147;27691;-81
2023/12/24 08:52:33;;;;;;;0.47;0.47;;;12.10;99.90;;;;;;967013;147;27317;-81
2023/12/24 08:54:58;;;;;;;0.70;0.70;;;12.10;99.90;;;;;;968335;146;27265;-80
2023/12/24 08:57:25;;;;;;;0.60;0.60;;;12.10;99.90;;;;;;972327;146;27324;-82
2023/12/24 08:59:52;;;;;;;0.40;0.40;;;12.10;99.90;;;;;;973434;146;27820;-80
2023/12/24 09:02:18;;;;;;;0.50;0.50;;;12.10;99.90;;;;;;967854;146;27315;-81
2023/12/24 09:04:47;;;;;;;0.80;0.80;;;12.10;99.90;;;;;;967576;146;27282;-81
2023/12/24 09:07:11;;;;;;;1.40;1.30;;;12.10;99.90;;;;;;973260;146;27262;-82
2023/12/24 09:09:38;;;;;;;0.90;0.90;;;12.10;99.90;;;;;;973374;144;27426;-81
2023/12/24 09:12:05;;;;;;;0.70;0.70;;;12.20;99.90;;;;;;966485;145;27853;-80
2023/12/24 09:14:31;;;;;;;0.80;0.70;;;12.20;99.90;;;;;;964129;146;27317;-80
2023/12/24 09:16:58;;;;;;;0.80;0.80;;;12.20;99.90;;;;;;970286;146;27286;-80
2023/12/24 09:19:24;;;;;;;1.03;0.93;;;12.20;99.90;;;;;;929402;151;27419;-80
2023/12/24 09:21:51;;;;;;;1.73;1.10;;;12.20;99.90;;;;;;972420;146;27265;-80
2023/12/24 09:24:18;;;;;;;0.95;0.82;;;12.20;99.90;;;;;;972904;146;27277;-81
2023/12/24 09:26:44;;;;;;;0.80;0.80;;;12.20;99.90;;;;;;972463;145;27306;-81
2023/12/24 09:29:11;;;;;;;1.20;1.10;;;12.20;99.90;;;;;;972328;146;27382;-81
2023/12/24 09:31:39;;;;;;;1.07;0.80;;;12.30;99.90;;;;;;971265;146;27316;-80
2023/12/24 09:34:04;;;;;;;0.60;0.60;;;12.30;99.90;;;;;;970843;145;27294;-80
2023/12/24 09:36:30;;;;;;;1.83;0.80;;;12.30;99.90;;;;;;973137;145;27261;-78
2023/12/24 09:38:57;;;;;;;0.70;0.45;;;12.30;99.90;;;;;;931229;150;27431;-80
2023/12/24 09:41:24;;;;;;;0.50;0.50;;;12.30;99.90;;;;;;972716;145;27430;-82
2023/12/24 09:43:50;;;;;;;0.40;0.40;;;12.40;99.90;;;;;;973818;146;27352;-80
2023/12/24 09:46:17;;;;;;;0.42;0.42;;;12.40;99.90;;;;;;965975;146;27343;-80
2023/12/24 09:48:43;;;;;;;0.47;0.47;;;12.40;99.90;;;;;;965525;146;27808;-80
2023/12/24 09:51:10;;;;;;;0.60;0.60;;;12.40;99.90;;;;;;964615;146;27302;-82
2023/12/24 09:53:37;;;;;;;0.80;0.80;;;12.40;99.90;;;;;;961222;147;27429;-80
2023/12/24 09:56:03;;;;;;;0.50;0.50;;;12.40;99.90;;;;;;964567;146;27410;-79
2023/12/24 09:58:30;;;;;;;0.47;0.47;;;12.40;99.90;;;;;;965142;146;27275;-82
2023/12/24 10:00:57;;;;;;;0.60;0.60;;;12.50;99.90;;;;;;965425;146;27341;-81
2023/12/24 10:03:23;;;;;;;0.47;0.47;;;12.50;99.90;;;;;;964827;146;27333;-83
2023/12/24 10:06:05;;;;;;;0.40;0.40;;;12.50;99.90;;;;;;919750;151;27733;-84
2023/12/24 10:08:32;;;;;;;0.40;0.40;;;12.60;99.90;;;;;;930897;152;27358;-86
2023/12/24 10:10:58;;;;;;;0.50;0.50;;;12.60;99.90;;;;;;932315;151;27284;-85
2023/12/24 10:13:25;;;;;;;0.50;0.50;;;12.60;99.90;;;;;;929923;151;27460;-84
2023/12/24 10:16:04;;;;;;;0.50;0.50;;;12.70;99.90;;;;;;933519;151;27440;-84
2023/12/24 10:18:30;;;;;;;0.85;0.57;;;12.70;99.90;;;;;;925844;152;27842;-86
2023/12/24 10:21:02;;;;;;;0.55;0.55;;;12.80;99.90;;;;;;929141;152;27342;-85
2023/12/24 10:23:29;;;;;;;1.25;0.50;;;12.80;99.90;;;;;;964903;146;27314;-84
2023/12/24 10:26:04;;;;;;;0.50;0.50;;;12.90;99.90;;;;;;966906;146;27439;-84
2023/12/24 10:28:30;;;;;;;0.50;0.50;;;12.90;99.90;;;;;;965878;146;27398;-85
2023/12/24 10:31:09;;;;;;;0.50;0.50;;;12.90;99.90;;;;;;966069;146;27255;-84
2023/12/24 10:33:36;;;;;;;0.57;0.57;;;13.00;99.90;;;;;;965144;146;27322;-84
2023/12/24 10:36:02;;;;;;;0.70;0.50;;;13.00;99.90;;;;;;964611;146;27417;-86
2023/12/24 10:38:29;;;;;;;0.40;0.40;;;13.00;99.90;;;;;;964737;148;27302;-84
2023/12/24 10:40:56;;;;;;;0.40;0.40;;;13.10;99.90;;;;;;965195;146;27235;-84
2023/12/24 10:43:22;;;;;;;0.35;0.35;;;13.10;99.90;;;;;;964620;147;27285;-84
2023/12/24 10:45:49;;;;;;;0.33;0.33;;;13.10;99.90;;;;;;963009;146;27454;-84
2023/12/24 10:48:15;;;;;;;0.50;0.50;;;13.10;99.90;;;;;;963398;148;27267;-84
2023/12/24 10:50:42;;;;;;;0.50;0.50;;;13.20;99.90;;;;;;926955;151;27323;-84
2023/12/24 10:53:09;;;;;;;0.93;0.50;;;13.20;99.90;;;;;;934808;150;27294;-84
2023/12/24 10:55:35;;;;;;;0.30;0.30;;;13.20;99.90;;;;;;965234;146;27319;-84
2023/12/24 10:58:20;;;;;;;0.60;0.60;;;13.20;99.90;;;;;;962938;146;27791;-85
2023/12/24 11:00:46;;;;;;;0.40;0.40;;;13.30;99.90;;;;;;962376;147;27305;-86
2023/12/24 11:03:13;;;;;;;0.50;0.50;;;13.30;99.90;;;;;;963399;146;27385;-85
2023/12/24 11:05:44;;;;;;;0.50;0.50;;;13.30;99.90;;;;;;959237;146;27332;-84
2023/12/24 11:08:24;;;;;;;0.60;0.60;;;13.30;99.90;;;;;;963209;146;27923;-84
2023/12/24 11:11:03;;;;;;;0.50;0.50;;;13.40;99.90;;;;;;962696;147;27322;-84
2023/12/24 11:13:33;;;;;;;0.45;0.45;;;13.40;99.90;;;;;;927328;148;27342;-84
2023/12/24 11:16:05;;;;;;;0.40;0.40;;;13.40;99.90;;;;;;968567;146;27278;-84
2023/12/24 11:18:46;;;;;;;0.40;0.40;;;13.50;99.90;;;;;;968328;145;27331;-83
2023/12/24 11:21:16;;;;;;;0.30;0.30;;;13.50;99.90;;;;;;965047;147;27656;-84
2023/12/24 11:23:42;;;;;;;0.90;0.75;;;13.50;99.90;;;;;;962776;146;27302;-84
2023/12/24 11:26:27;;;;;;;1.07;0.40;;;13.50;99.90;;;;;;960391;147;27258;-85
2023/12/24 11:28:54;;;;;;;0.40;0.40;;;13.60;99.90;;;;;;953943;147;27327;-83
2023/12/24 11:31:24;;;;;;;0.50;0.50;;;13.60;99.90;;;;;;960785;146;27992;-85
2023/12/24 11:33:50;;;;;;;0.55;0.55;;;13.60;99.90;;;;;;961726;147;27290;-85
2023/12/24 11:36:16;;;;;;;0.95;0.50;;;13.60;99.90;;;;;;962171;148;27370;-85
2023/12/24 11:38:45;;;;;;;0.40;0.40;;;13.60;99.90;;;;;;960553;147;27324;-84
2023/12/24 11:41:15;;;;;;;0.40;0.40;;;13.70;99.90;;;;;;961834;148;27318;-84
2023/12/24 11:43:42;;;;;;;0.42;0.42;;;13.70;99.90;;;;;;962074;146;27338;-86
2023/12/24 11:46:09;;;;;;;1.65;0.42;;;13.70;99.90;;;;;;962105;146;27298;-86
2023/12/24 11:48:35;;;;;;;0.35;0.35;;;13.70;99.90;;;;;;968502;146;27892;-84
2023/12/24 11:51:02;;;;;;;0.40;0.40;;;13.70;99.90;;;;;;970025;145;27320;-85
2023/12/24 11:53:28;;;;;;;0.40;0.40;;;13.70;99.90;;;;;;966065;146;28464;-86
2023/12/24 11:56:13;;;;;;;0.60;0.60;;;13.70;99.90;;;;;;962282;147;27611;-85
2023/12/24 11:58:39;;;;;;;0.65;0.65;;;13.70;99.90;;;;;;963557;147;27294;-84
2023/12/24 12:01:06;;;;;;;0.72;0.70;;;13.70;99.90;;;;;;962942;146;27283;-85
2023/12/24 12:03:33;;;;;;;0.47;0.47;;;13.70;99.90;;;;;;925558;148;27442;-85
2023/12/24 12:05:59;;;;;;;0.85;0.80;;;13.70;99.90;;;;;;933702;151;27249;-85
2023/12/24 12:08:28;;;;;;;0.80;0.80;;;13.70;99.90;;;;;;934299;151;27490;-85
2023/12/24 12:10:52;;;;;;;0.60;0.60;;;13.70;99.90;;;;;;961217;146;27259;-84
2023/12/24 12:13:19;;;;;;;0.78;0.78;;;13.70;99.90;;;;;;967992;146;27487;-86
2023/12/24 12:15:46;;;;;;;0.70;0.70;;;13.70;99.90;;;;;;962639;146;27317;-85
2023/12/24 12:18:14;;;;;;;0.57;0.57;;;13.70;99.90;;;;;;963209;147;27303;-83
2023/12/24 12:20:39;;;;;;;0.60;0.60;;;13.70;99.90;;;;;;963951;147;27257;-83
2023/12/24 12:23:05;;;;;;;0.45;0.45;;;13.70;99.90;;;;;;962473;147;27331;-83
2023/12/24 12:25:32;;;;;;;0.50;0.50;;;13.70;99.90;;;;;;962353;146;27322;-84
2023/12/24 12:27:58;;;;;;;0.23;0.23;;;13.70;99.90;;;;;;963793;148;27318;-84
2023/12/24 12:30:25;;;;;;;0.70;0.70;;;13.70;99.90;;;;;;962905;147;27344;-84
2023/12/24 12:32:52;;;;;;;0.60;0.60;;;13.70;99.90;;;;;;964401;148;27366;-84
2023/12/24 12:35:18;;;;;;;0.70;0.70;;;13.70;99.90;;;;;;963296;147;27416;-83
2023/12/24 12:37:45;;;;;;;1.00;1.00;;;13.70;99.90;;;;;;962988;147;27260;-84
2023/12/24 12:40:11;;;;;;;2.00;0.70;;;13.70;99.90;;;;;;963106;148;27266;-84
2023/12/24 12:42:38;;;;;;;0.50;0.50;;;13.70;99.90;;;;;;962711;146;27291;-84
2023/12/24 12:45:05;;;;;;;0.60;0.60;;;13.70;99.90;;;;;;961145;147;27392;-83
2023/12/24 12:47:31;;;;;;;0.50;0.50;;;13.80;99.90;;;;;;965291;146;27450;-83